sensor_id;sensor_type;location;lat;lon;timestamp;temperature;humidity
2389;DHT22;1205;47.984;7.668;2023-03-24T00:02:07;14.00;99.90
2389;DHT22;1205;47.984;7.668;2023-03-24T00:04:34;14.00;99.90
2389;DHT22;1205;47.984;7.668;2023-03-24T00:07:01;13.90;99.90
2389;DHT22;1205;47.984;7.668;2023-03-24T00:09:28;13.90;99.90
2389;DHT22;1205;47.984;7.668;2023-03-24T00:11:55;13.90;99.90
2389;DHT22;1205;47.984;7.668;2023-03-24T00:14:21;13.90;99.90
2389;DHT22;1205;47.984;7.668;2023-03-24T00:16:48;13.90;99.90
2389;DHT22;1205;47.984;7.668;2023-03-24T00:19:15;13.80;99.90
2389;DHT22;1205;47.984;7.668;2023-03-24T00:21:42;13.60;99.90
2389;DHT22;1205;47.984;7.668;2023-03-24T00:24:08;13.50;99.90
2389;DHT22;1205;47.984;7.668;2023-03-24T00:26:35;13.50;99.90
2389;DHT22;1205;47.984;7.668;2023-03-24T00:29:06;13.50;99.90
2389;DHT22;1205;47.984;7.668;2023-03-24T00:31:32;13.50;99.90
2389;DHT22;1205;47.984;7.668;2023-03-24T00:33:58;13.40;99.90
2389;DHT22;1205;47.984;7.668;2023-03-24T00:36:27;13.40;99.90
2389;DHT22;1205;47.984;7.668;2023-03-24T00:38:54;13.50;99.90
2389;DHT22;1205;47.984;7.668;2023-03-24T00:41:20;13.50;99.90
2389;DHT22;1205;47.984;7.668;2023-03-24T00:43:48;13.50;99.90
2389;DHT22;1205;47.984;7.668;2023-03-24T00:46:15;13.50;99.90
2389;DHT22;1205;47.984;7.668;2023-03-24T00:49:01;13.60;99.90
2389;DHT22;1205;47.984;7.668;2023-03-24T00:51:36;13.60;99.90
2389;DHT22;1205;47.984;7.668;2023-03-24T00:54:03;13.60;99.90
2389;DHT22;1205;47.984;7.668;2023-03-24T00:56:31;13.50;99.90
2389;DHT22;1205;47.984;7.668;2023-03-24T00:58:57;13.50;99.90
2389;DHT22;1205;47.984;7.668;2023-03-24T01:01:24;13.50;99.90
2389;DHT22;1205;47.984;7.668;2023-03-24T01:03:50;13.50;99.90
2389;DHT22;1205;47.984;7.668;2023-03-24T01:06:17;13.40;99.90
2389;DHT22;1205;47.984;7.668;2023-03-24T01:08:44;13.50;99.90
2389;DHT22;1205;47.984;7.668;2023-03-24T01:11:10;13.50;99.90
2389;DHT22;1205;47.984;7.668;2023-03-24T01:13:37;13.50;99.90
2389;DHT22;1205;47.984;7.668;2023-03-24T01:16:04;13.50;99.90
2389;DHT22;1205;47.984;7.668;2023-03-24T01:18:30;13.50;99.90
2389;DHT22;1205;47.984;7.668;2023-03-24T01:20:56;13.50;99.90
2389;DHT22;1205;47.984;7.668;2023-03-24T01:23:24;13.50;99.90
2389;DHT22;1205;47.984;7.668;2023-03-24T01:25:51;13.50;99.90
2389;DHT22;1205;47.984;7.668;2023-03-24T01:28:21;13.50;99.90
2389;DHT22;1205;47.984;7.668;2023-03-24T01:30:50;13.60;99.90
2389;DHT22;1205;47.984;7.668;2023-03-24T01:33:16;13.60;99.90
2389;DHT22;1205;47.984;7.668;2023-03-24T01:35:41;13.60;99.90
2389;DHT22;1205;47.984;7.668;2023-03-24T01:38:08;13.60;99.90
2389;DHT22;1205;47.984;7.668;2023-03-24T01:40:37;13.60;99.90
2389;DHT22;1205;47.984;7.668;2023-03-24T01:43:04;13.60;99.90
2389;DHT22;1205;47.984;7.668;2023-03-24T01:45:44;13.60;99.90
2389;DHT22;1205;47.984;7.668;2023-03-24T01:48:20;13.70;99.90
2389;DHT22;1205;47.984;7.668;2023-03-24T01:50:58;13.60;99.90
2389;DHT22;1205;47.984;7.668;2023-03-24T01:53:26;13.70;99.90
2389;DHT22;1205;47.984;7.668;2023-03-24T01:55:53;13.70;99.90
2389;DHT22;1205;47.984;7.668;2023-03-24T01:58:20;13.80;99.90
2389;DHT22;1205;47.984;7.668;2023-03-24T02:00:45;13.80;99.90
2389;DHT22;1205;47.984;7.668;2023-03-24T02:03:15;13.80;99.90
2389;DHT22;1205;47.984;7.668;2023-03-24T02:05:44;13.80;99.90
2389;DHT22;1205;47.984;7.668;2023-03-24T02:11:08;13.90;99.90
2389;DHT22;1205;47.984;7.668;2023-03-24T02:13:34;14.00;99.90
2389;DHT22;1205;47.984;7.668;2023-03-24T02:16:06;14.00;99.90
2389;DHT22;1205;47.984;7.668;2023-03-24T02:21:29;14.00;99.90
2389;DHT22;1205;47.984;7.668;2023-03-24T02:24:28;14.10;99.90
2389;DHT22;1205;47.984;7.668;2023-03-24T02:35:30;14.00;99.90
2389;DHT22;1205;47.984;7.668;2023-03-24T02:40:39;14.00;99.90
2389;DHT22;1205;47.984;7.668;2023-03-24T02:43:16;14.00;99.90
2389;DHT22;1205;47.984;7.668;2023-03-24T02:48:47;14.10;99.90
2389;DHT22;1205;47.984;7.668;2023-03-24T02:51:30;14.10;99.90
2389;DHT22;1205;47.984;7.668;2023-03-24T02:59:05;14.10;99.90
2389;DHT22;1205;47.984;7.668;2023-03-24T03:01:57;14.20;99.90
2389;DHT22;1205;47.984;7.668;2023-03-24T03:04:42;14.20;99.90
2389;DHT22;1205;47.984;7.668;2023-03-24T03:07:16;14.30;99.90
2389;DHT22;1205;47.984;7.668;2023-03-24T03:10:00;14.40;99.90
2389;DHT22;1205;47.984;7.668;2023-03-24T03:12:29;14.50;99.90
2389;DHT22;1205;47.984;7.668;2023-03-24T03:15:04;14.60;99.80
2389;DHT22;1205;47.984;7.668;2023-03-24T03:17:35;14.60;99.90
2389;DHT22;1205;47.984;7.668;2023-03-24T03:20:12;14.60;99.90
2389;DHT22;1205;47.984;7.668;2023-03-24T03:22:44;14.60;99.90
2389;DHT22;1205;47.984;7.668;2023-03-24T03:25:12;14.60;99.90
2389;DHT22;1205;47.984;7.668;2023-03-24T03:27:42;14.60;99.90
2389;DHT22;1205;47.984;7.668;2023-03-24T03:30:15;14.70;99.80
2389;DHT22;1205;47.984;7.668;2023-03-24T03:32:49;14.70;99.80
2389;DHT22;1205;47.984;7.668;2023-03-24T03:36:05;14.70;99.90
2389;DHT22;1205;47.984;7.668;2023-03-24T03:38:35;14.70;99.90
2389;DHT22;1205;47.984;7.668;2023-03-24T03:41:03;14.80;99.90
2389;DHT22;1205;47.984;7.668;2023-03-24T03:43:30;15.00;99.50
2389;DHT22;1205;47.984;7.668;2023-03-24T03:45:58;15.00;99.20
2389;DHT22;1205;47.984;7.668;2023-03-24T03:48:26;15.00;99.50
2389;DHT22;1205;47.984;7.668;2023-03-24T03:50:53;15.30;98.20
2389;DHT22;1205;47.984;7.668;2023-03-24T03:53:21;15.70;97.00
2389;DHT22;1205;47.984;7.668;2023-03-24T03:55:48;16.10;96.30
2389;DHT22;1205;47.984;7.668;2023-03-24T03:58:14;16.10;96.00
2389;DHT22;1205;47.984;7.668;2023-03-24T04:00:40;16.40;95.70
2389;DHT22;1205;47.984;7.668;2023-03-24T04:03:43;16.30;96.00
2389;DHT22;1205;47.984;7.668;2023-03-24T04:06:17;16.20;96.90
2389;DHT22;1205;47.984;7.668;2023-03-24T04:08:50;16.00;98.70
2389;DHT22;1205;47.984;7.668;2023-03-24T04:11:39;15.70;99.90
2389;DHT22;1205;47.984;7.668;2023-03-24T04:15:06;15.40;99.90
2389;DHT22;1205;47.984;7.668;2023-03-24T04:17:54;15.20;99.90
2389;DHT22;1205;47.984;7.668;2023-03-24T04:20:31;15.00;99.90
2389;DHT22;1205;47.984;7.668;2023-03-24T04:33:53;14.50;99.90
2389;DHT22;1205;47.984;7.668;2023-03-24T04:36:40;14.50;99.90
2389;DHT22;1205;47.984;7.668;2023-03-24T04:39:11;14.30;99.90
2389;DHT22;1205;47.984;7.668;2023-03-24T04:41:39;14.30;99.90
2389;DHT22;1205;47.984;7.668;2023-03-24T04:44:05;14.20;99.90
2389;DHT22;1205;47.984;7.668;2023-03-24T04:46:31;14.20;99.90
2389;DHT22;1205;47.984;7.668;2023-03-24T04:48:57;14.20;99.90
2389;DHT22;1205;47.984;7.668;2023-03-24T04:51:23;14.10;99.90
2389;DHT22;1205;47.984;7.668;2023-03-24T04:53:49;14.20;99.90
2389;DHT22;1205;47.984;7.668;2023-03-24T04:58:43;14.20;99.90
2389;DHT22;1205;47.984;7.668;2023-03-24T05:01:09;14.20;99.90
2389;DHT22;1205;47.984;7.668;2023-03-24T05:03:34;14.20;99.90
2389;DHT22;1205;47.984;7.668;2023-03-24T05:06:03;14.30;99.90
2389;DHT22;1205;47.984;7.668;2023-03-24T05:08:30;14.30;99.90
2389;DHT22;1205;47.984;7.668;2023-03-24T05:10:56;14.30;99.90
2389;DHT22;1205;47.984;7.668;2023-03-24T05:13:21;14.30;99.90
2389;DHT22;1205;47.984;7.668;2023-03-24T05:15:47;14.30;99.90
2389;DHT22;1205;47.984;7.668;2023-03-24T05:18:12;14.30;99.90
2389;DHT22;1205;47.984;7.668;2023-03-24T05:20:38;14.30;99.90
2389;DHT22;1205;47.984;7.668;2023-03-24T05:23:04;14.20;99.90
2389;DHT22;1205;47.984;7.668;2023-03-24T05:25:30;14.20;99.90
2389;DHT22;1205;47.984;7.668;2023-03-24T05:27:55;14.20;99.90
2389;DHT22;1205;47.984;7.668;2023-03-24T05:30:21;14.10;99.90
2389;DHT22;1205;47.984;7.668;2023-03-24T05:32:47;14.10;99.90
2389;DHT22;1205;47.984;7.668;2023-03-24T05:35:13;14.00;99.90
2389;DHT22;1205;47.984;7.668;2023-03-24T05:37:38;14.00;99.90
2389;DHT22;1205;47.984;7.668;2023-03-24T05:40:05;14.00;99.90
2389;DHT22;1205;47.984;7.668;2023-03-24T05:42:31;14.00;99.90
2389;DHT22;1205;47.984;7.668;2023-03-24T05:44:57;13.90;99.90
2389;DHT22;1205;47.984;7.668;2023-03-24T05:47:22;13.90;99.90
2389;DHT22;1205;47.984;7.668;2023-03-24T05:49:48;13.90;99.90
2389;DHT22;1205;47.984;7.668;2023-03-24T05:52:14;13.90;99.90
2389;DHT22;1205;47.984;7.668;2023-03-24T05:54:41;14.00;99.90
2389;DHT22;1205;47.984;7.668;2023-03-24T05:57:09;13.90;99.90
2389;DHT22;1205;47.984;7.668;2023-03-24T05:59:36;13.90;99.90
2389;DHT22;1205;47.984;7.668;2023-03-24T06:02:02;13.90;99.90
2389;DHT22;1205;47.984;7.668;2023-03-24T06:04:28;13.90;99.90
2389;DHT22;1205;47.984;7.668;2023-03-24T06:06:55;14.00;99.90
2389;DHT22;1205;47.984;7.668;2023-03-24T06:09:26;13.90;99.90
2389;DHT22;1205;47.984;7.668;2023-03-24T06:12:04;13.90;99.90
2389;DHT22;1205;47.984;7.668;2023-03-24T06:14:30;13.90;99.90
2389;DHT22;1205;47.984;7.668;2023-03-24T06:16:55;13.90;99.90
2389;DHT22;1205;47.984;7.668;2023-03-24T06:19:24;13.80;99.90
2389;DHT22;1205;47.984;7.668;2023-03-24T06:21:54;13.80;99.90
2389;DHT22;1205;47.984;7.668;2023-03-24T06:24:19;13.80;99.90
2389;DHT22;1205;47.984;7.668;2023-03-24T06:26:45;13.80;99.90
2389;DHT22;1205;47.984;7.668;2023-03-24T06:29:15;13.70;99.90
2389;DHT22;1205;47.984;7.668;2023-03-24T06:31:44;13.70;99.90
2389;DHT22;1205;47.984;7.668;2023-03-24T06:34:11;13.70;99.90
2389;DHT22;1205;47.984;7.668;2023-03-24T06:36:37;13.70;99.90
2389;DHT22;1205;47.984;7.668;2023-03-24T06:39:03;13.70;99.90
2389;DHT22;1205;47.984;7.668;2023-03-24T06:41:30;13.70;99.90
2389;DHT22;1205;47.984;7.668;2023-03-24T06:43:56;13.70;99.90
2389;DHT22;1205;47.984;7.668;2023-03-24T06:46:22;13.70;99.90
2389;DHT22;1205;47.984;7.668;2023-03-24T06:48:47;13.60;99.90
2389;DHT22;1205;47.984;7.668;2023-03-24T06:51:13;13.60;99.90
2389;DHT22;1205;47.984;7.668;2023-03-24T06:53:39;13.70;99.90
2389;DHT22;1205;47.984;7.668;2023-03-24T06:56:06;13.60;99.90
2389;DHT22;1205;47.984;7.668;2023-03-24T06:58:32;13.60;99.90
2389;DHT22;1205;47.984;7.668;2023-03-24T07:00:59;13.60;99.90
2389;DHT22;1205;47.984;7.668;2023-03-24T07:03:26;13.70;99.90
2389;DHT22;1205;47.984;7.668;2023-03-24T07:05:51;13.70;99.90
2389;DHT22;1205;47.984;7.668;2023-03-24T07:08:17;13.60;99.90
2389;DHT22;1205;47.984;7.668;2023-03-24T07:10:43;13.60;99.90
2389;DHT22;1205;47.984;7.668;2023-03-24T07:13:09;13.70;99.90
2389;DHT22;1205;47.984;7.668;2023-03-24T07:15:34;13.70;99.90
2389;DHT22;1205;47.984;7.668;2023-03-24T07:18:00;13.70;99.90
2389;DHT22;1205;47.984;7.668;2023-03-24T07:20:26;13.60;99.90
2389;DHT22;1205;47.984;7.668;2023-03-24T07:22:56;13.60;99.90
2389;DHT22;1205;47.984;7.668;2023-03-24T07:25:23;13.60;99.90
2389;DHT22;1205;47.984;7.668;2023-03-24T07:27:53;13.60;99.90
2389;DHT22;1205;47.984;7.668;2023-03-24T07:30:20;13.50;99.90
2389;DHT22;1205;47.984;7.668;2023-03-24T07:32:45;13.50;99.90
2389;DHT22;1205;47.984;7.668;2023-03-24T07:35:14;13.50;99.90
2389;DHT22;1205;47.984;7.668;2023-03-24T07:37:41;13.50;99.90
2389;DHT22;1205;47.984;7.668;2023-03-24T07:40:07;13.50;99.90
2389;DHT22;1205;47.984;7.668;2023-03-24T07:42:39;13.50;99.90
2389;DHT22;1205;47.984;7.668;2023-03-24T07:45:07;13.40;99.90
2389;DHT22;1205;47.984;7.668;2023-03-24T07:47:34;13.40;99.90
2389;DHT22;1205;47.984;7.668;2023-03-24T07:50:00;13.40;99.90
2389;DHT22;1205;47.984;7.668;2023-03-24T07:52:28;13.30;99.90
2389;DHT22;1205;47.984;7.668;2023-03-24T07:54:54;13.30;99.90
2389;DHT22;1205;47.984;7.668;2023-03-24T07:57:20;13.40;99.90
2389;DHT22;1205;47.984;7.668;2023-03-24T07:59:47;13.30;99.90
2389;DHT22;1205;47.984;7.668;2023-03-24T08:02:18;13.40;99.90
2389;DHT22;1205;47.984;7.668;2023-03-24T08:04:44;13.40;99.90
2389;DHT22;1205;47.984;7.668;2023-03-24T08:07:11;13.50;99.90
2389;DHT22;1205;47.984;7.668;2023-03-24T08:09:39;13.50;99.90
2389;DHT22;1205;47.984;7.668;2023-03-24T08:12:05;13.40;99.90
2389;DHT22;1205;47.984;7.668;2023-03-24T08:34:43;13.80;99.90
2389;DHT22;1205;47.984;7.668;2023-03-24T08:37:09;13.90;99.90
2389;DHT22;1205;47.984;7.668;2023-03-24T08:39:36;13.90;99.90
2389;DHT22;1205;47.984;7.668;2023-03-24T08:42:02;13.90;99.90
2389;DHT22;1205;47.984;7.668;2023-03-24T08:44:28;14.00;99.90
2389;DHT22;1205;47.984;7.668;2023-03-24T08:46:53;14.00;99.90
2389;DHT22;1205;47.984;7.668;2023-03-24T08:49:19;14.10;99.90
2389;DHT22;1205;47.984;7.668;2023-03-24T08:51:45;14.20;99.90
2389;DHT22;1205;47.984;7.668;2023-03-24T08:54:11;14.20;99.90
2389;DHT22;1205;47.984;7.668;2023-03-24T08:56:38;14.20;99.90
2389;DHT22;1205;47.984;7.668;2023-03-24T08:59:03;14.20;99.90
2389;DHT22;1205;47.984;7.668;2023-03-24T09:01:30;14.20;99.90
2389;DHT22;1205;47.984;7.668;2023-03-24T09:03:55;14.20;99.90
2389;DHT22;1205;47.984;7.668;2023-03-24T09:06:22;14.20;99.90
2389;DHT22;1205;47.984;7.668;2023-03-24T09:08:47;14.30;99.90
2389;DHT22;1205;47.984;7.668;2023-03-24T09:11:18;14.20;99.90
2389;DHT22;1205;47.984;7.668;2023-03-24T09:13:44;14.80;99.90
2389;DHT22;1205;47.984;7.668;2023-03-24T09:16:10;14.80;99.90
2389;DHT22;1205;47.984;7.668;2023-03-24T09:18:36;15.10;99.90
2389;DHT22;1205;47.984;7.668;2023-03-24T09:21:03;15.40;99.90
2389;DHT22;1205;47.984;7.668;2023-03-24T09:23:28;15.40;99.90
2389;DHT22;1205;47.984;7.668;2023-03-24T09:25:55;15.60;99.90
2389;DHT22;1205;47.984;7.668;2023-03-24T09:28:21;15.70;99.90
2389;DHT22;1205;47.984;7.668;2023-03-24T09:30:47;15.90;99.90
2389;DHT22;1205;47.984;7.668;2023-03-24T09:33:13;15.50;99.90
2389;DHT22;1205;47.984;7.668;2023-03-24T09:35:40;15.60;99.90
2389;DHT22;1205;47.984;7.668;2023-03-24T09:38:05;15.30;99.90
2389;DHT22;1205;47.984;7.668;2023-03-24T09:40:35;15.20;99.90
2389;DHT22;1205;47.984;7.668;2023-03-24T09:43:11;14.90;99.90
2389;DHT22;1205;47.984;7.668;2023-03-24T09:45:48;14.80;99.90
2389;DHT22;1205;47.984;7.668;2023-03-24T09:48:39;14.70;99.90
2389;DHT22;1205;47.984;7.668;2023-03-24T09:54:11;14.80;99.90
2389;DHT22;1205;47.984;7.668;2023-03-24T09:56:41;14.70;99.90
2389;DHT22;1205;47.984;7.668;2023-03-24T09:59:20;14.70;99.90
2389;DHT22;1205;47.984;7.668;2023-03-24T10:01:46;14.60;99.90
2389;DHT22;1205;47.984;7.668;2023-03-24T10:04:17;14.50;99.90
2389;DHT22;1205;47.984;7.668;2023-03-24T10:06:44;14.40;99.90
2389;DHT22;1205;47.984;7.668;2023-03-24T10:09:22;14.30;99.90
2389;DHT22;1205;47.984;7.668;2023-03-24T10:22:58;14.00;99.90
2389;DHT22;1205;47.984;7.668;2023-03-24T10:25:31;14.20;99.90
2389;DHT22;1205;47.984;7.668;2023-03-24T10:28:08;14.10;99.90
2389;DHT22;1205;47.984;7.668;2023-03-24T10:30:40;14.00;99.90
2389;DHT22;1205;47.984;7.668;2023-03-24T10:33:09;14.00;99.90
2389;DHT22;1205;47.984;7.668;2023-03-24T10:35:39;13.90;99.90
2389;DHT22;1205;47.984;7.668;2023-03-24T10:38:16;14.00;99.90
2389;DHT22;1205;47.984;7.668;2023-03-24T10:40:43;14.00;99.90
2389;DHT22;1205;47.984;7.668;2023-03-24T10:43:09;14.00;99.90
2389;DHT22;1205;47.984;7.668;2023-03-24T10:45:38;14.10;99.90
2389;DHT22;1205;47.984;7.668;2023-03-24T10:48:04;14.10;99.90
2389;DHT22;1205;47.984;7.668;2023-03-24T10:50:31;14.10;99.90
2389;DHT22;1205;47.984;7.668;2023-03-24T10:52:58;14.10;99.90
2389;DHT22;1205;47.984;7.668;2023-03-24T10:55:34;14.10;99.90
2389;DHT22;1205;47.984;7.668;2023-03-24T10:58:00;14.00;99.90
2389;DHT22;1205;47.984;7.668;2023-03-24T11:00:30;14.00;99.90
2389;DHT22;1205;47.984;7.668;2023-03-24T11:03:03;14.00;99.90
2389;DHT22;1205;47.984;7.668;2023-03-24T11:05:35;14.00;99.90
2389;DHT22;1205;47.984;7.668;2023-03-24T11:10:42;14.00;99.90
2389;DHT22;1205;47.984;7.668;2023-03-24T11:13:37;14.40;99.90
2389;DHT22;1205;47.984;7.668;2023-03-24T11:16:14;14.60;99.90
2389;DHT22;1205;47.984;7.668;2023-03-24T11:19:00;14.60;99.90
2389;DHT22;1205;47.984;7.668;2023-03-24T11:21:34;14.60;99.90
2389;DHT22;1205;47.984;7.668;2023-03-24T11:24:03;14.40;99.90
2389;DHT22;1205;47.984;7.668;2023-03-24T11:26:36;14.50;99.90
2389;DHT22;1205;47.984;7.668;2023-03-24T11:29:14;14.50;99.90
2389;DHT22;1205;47.984;7.668;2023-03-24T11:31:41;14.40;99.90
2389;DHT22;1205;47.984;7.668;2023-03-24T11:34:11;14.40;99.90
2389;DHT22;1205;47.984;7.668;2023-03-24T11:36:42;14.60;99.90
2389;DHT22;1205;47.984;7.668;2023-03-24T11:39:26;14.60;99.90
2389;DHT22;1205;47.984;7.668;2023-03-24T11:42:02;14.40;99.90
2389;DHT22;1205;47.984;7.668;2023-03-24T11:44:54;14.60;99.90
2389;DHT22;1205;47.984;7.668;2023-03-24T11:52:27;14.90;99.90
2389;DHT22;1205;47.984;7.668;2023-03-24T11:54:54;15.00;99.90
2389;DHT22;1205;47.984;7.668;2023-03-24T11:57:45;15.00;99.90
2389;DHT22;1205;47.984;7.668;2023-03-24T12:00:27;14.70;99.90
2389;DHT22;1205;47.984;7.668;2023-03-24T12:08:47;14.80;99.90
2389;DHT22;1205;47.984;7.668;2023-03-24T12:11:32;14.80;99.90
2389;DHT22;1205;47.984;7.668;2023-03-24T12:14:04;14.80;99.90
2389;DHT22;1205;47.984;7.668;2023-03-24T12:25:38;14.60;99.90
2389;DHT22;1205;47.984;7.668;2023-03-24T12:36:31;14.40;99.90
2389;DHT22;1205;47.984;7.668;2023-03-24T12:39:12;14.20;99.90
2389;DHT22;1205;47.984;7.668;2023-03-24T12:55:20;14.10;99.90
2389;DHT22;1205;47.984;7.668;2023-03-24T12:58:08;14.10;99.90
2389;DHT22;1205;47.984;7.668;2023-03-24T13:00:40;14.00;99.90
2389;DHT22;1205;47.984;7.668;2023-03-24T13:03:16;13.80;99.90
2389;DHT22;1205;47.984;7.668;2023-03-24T13:05:49;13.90;99.90
2389;DHT22;1205;47.984;7.668;2023-03-24T13:08:21;13.90;99.90
2389;DHT22;1205;47.984;7.668;2023-03-24T13:10:57;14.00;99.90
2389;DHT22;1205;47.984;7.668;2023-03-24T13:13:37;14.20;99.90
2389;DHT22;1205;47.984;7.668;2023-03-24T13:16:10;14.10;99.90
2389;DHT22;1205;47.984;7.668;2023-03-24T13:18:55;14.10;99.90
2389;DHT22;1205;47.984;7.668;2023-03-24T13:21:24;14.10;99.90
2389;DHT22;1205;47.984;7.668;2023-03-24T13:24:01;14.30;99.90
2389;DHT22;1205;47.984;7.668;2023-03-24T13:34:48;14.00;99.90
2389;DHT22;1205;47.984;7.668;2023-03-24T13:37:24;14.10;99.90
2389;DHT22;1205;47.984;7.668;2023-03-24T13:39:55;14.00;99.90
2389;DHT22;1205;47.984;7.668;2023-03-24T13:42:31;14.00;99.90
2389;DHT22;1205;47.984;7.668;2023-03-24T13:45:02;13.90;99.90
2389;DHT22;1205;47.984;7.668;2023-03-24T13:47:59;13.80;99.90
2389;DHT22;1205;47.984;7.668;2023-03-24T13:50:26;13.80;99.90
2389;DHT22;1205;47.984;7.668;2023-03-24T13:52:53;13.60;99.90
2389;DHT22;1205;47.984;7.668;2023-03-24T13:55:25;13.60;99.90
2389;DHT22;1205;47.984;7.668;2023-03-24T13:57:58;13.60;99.90
2389;DHT22;1205;47.984;7.668;2023-03-24T14:00:25;13.50;99.90
2389;DHT22;1205;47.984;7.668;2023-03-24T14:02:53;13.50;99.90
2389;DHT22;1205;47.984;7.668;2023-03-24T14:15:31;13.50;99.90
2389;DHT22;1205;47.984;7.668;2023-03-24T14:23:37;13.70;99.90
2389;DHT22;1205;47.984;7.668;2023-03-24T14:26:13;13.60;99.90
2389;DHT22;1205;47.984;7.668;2023-03-24T14:28:44;13.70;99.90
2389;DHT22;1205;47.984;7.668;2023-03-24T14:36:26;13.70;99.90
2389;DHT22;1205;47.984;7.668;2023-03-24T14:38:56;13.90;99.90
2389;DHT22;1205;47.984;7.668;2023-03-24T14:41:30;13.90;99.90
2389;DHT22;1205;47.984;7.668;2023-03-24T14:44:03;13.80;99.90
2389;DHT22;1205;47.984;7.668;2023-03-24T14:46:39;13.90;99.90
2389;DHT22;1205;47.984;7.668;2023-03-24T14:54:02;14.00;99.90
2389;DHT22;1205;47.984;7.668;2023-03-24T14:56:34;14.00;99.90
2389;DHT22;1205;47.984;7.668;2023-03-24T14:59:07;14.20;99.90
2389;DHT22;1205;47.984;7.668;2023-03-24T15:01:37;14.30;99.90
2389;DHT22;1205;47.984;7.668;2023-03-24T15:04:10;14.40;99.90
2389;DHT22;1205;47.984;7.668;2023-03-24T15:06:44;14.60;99.90
2389;DHT22;1205;47.984;7.668;2023-03-24T15:09:11;14.60;99.90
2389;DHT22;1205;47.984;7.668;2023-03-24T15:11:38;14.40;99.90
2389;DHT22;1205;47.984;7.668;2023-03-24T15:14:05;14.50;99.90
2389;DHT22;1205;47.984;7.668;2023-03-24T15:16:37;14.60;99.90
2389;DHT22;1205;47.984;7.668;2023-03-24T15:19:20;14.30;99.90
2389;DHT22;1205;47.984;7.668;2023-03-24T15:21:49;14.50;99.90
2389;DHT22;1205;47.984;7.668;2023-03-24T15:29:28;14.60;99.90
2389;DHT22;1205;47.984;7.668;2023-03-24T15:31:54;14.50;99.90
2389;DHT22;1205;47.984;7.668;2023-03-24T15:34:28;14.60;99.90
2389;DHT22;1205;47.984;7.668;2023-03-24T15:36:56;14.40;99.90
2389;DHT22;1205;47.984;7.668;2023-03-24T15:39:32;14.60;99.90
2389;DHT22;1205;47.984;7.668;2023-03-24T15:41:58;14.60;99.90
2389;DHT22;1205;47.984;7.668;2023-03-24T15:44:27;14.40;99.90
2389;DHT22;1205;47.984;7.668;2023-03-24T15:46:57;14.40;99.90
2389;DHT22;1205;47.984;7.668;2023-03-24T15:49:33;14.20;99.90
2389;DHT22;1205;47.984;7.668;2023-03-24T15:52:03;14.20;99.90
2389;DHT22;1205;47.984;7.668;2023-03-24T15:54:40;14.00;99.90
2389;DHT22;1205;47.984;7.668;2023-03-24T15:57:17;14.00;99.90
2389;DHT22;1205;47.984;7.668;2023-03-24T15:59:54;14.10;99.90
2389;DHT22;1205;47.984;7.668;2023-03-24T16:02:42;14.10;99.90
2389;DHT22;1205;47.984;7.668;2023-03-24T16:05:23;14.00;99.90
2389;DHT22;1205;47.984;7.668;2023-03-24T16:08:37;14.10;99.90
2389;DHT22;1205;47.984;7.668;2023-03-24T16:11:07;14.20;99.90
2389;DHT22;1205;47.984;7.668;2023-03-24T16:13:36;14.20;99.90
2389;DHT22;1205;47.984;7.668;2023-03-24T16:18:36;14.30;99.90
2389;DHT22;1205;47.984;7.668;2023-03-24T16:21:23;14.20;99.90
2389;DHT22;1205;47.984;7.668;2023-03-24T16:23:50;14.40;99.90
2389;DHT22;1205;47.984;7.668;2023-03-24T16:26:19;14.50;99.90
2389;DHT22;1205;47.984;7.668;2023-03-24T16:28:45;14.50;99.90
2389;DHT22;1205;47.984;7.668;2023-03-24T16:31:31;14.60;99.90
2389;DHT22;1205;47.984;7.668;2023-03-24T16:33:59;14.60;99.90
2389;DHT22;1205;47.984;7.668;2023-03-24T16:36:25;14.60;99.90
2389;DHT22;1205;47.984;7.668;2023-03-24T16:38:54;14.50;99.90
2389;DHT22;1205;47.984;7.668;2023-03-24T16:41:20;14.50;99.90
2389;DHT22;1205;47.984;7.668;2023-03-24T16:43:47;14.40;99.90
2389;DHT22;1205;47.984;7.668;2023-03-24T16:46:21;14.30;99.90
2389;DHT22;1205;47.984;7.668;2023-03-24T16:48:54;14.20;99.90
2389;DHT22;1205;47.984;7.668;2023-03-24T16:51:20;14.10;99.90
2389;DHT22;1205;47.984;7.668;2023-03-24T16:53:46;14.20;99.90
2389;DHT22;1205;47.984;7.668;2023-03-24T16:56:13;14.10;99.90
2389;DHT22;1205;47.984;7.668;2023-03-24T16:58:39;14.10;99.90
2389;DHT22;1205;47.984;7.668;2023-03-24T17:01:32;14.00;99.90
2389;DHT22;1205;47.984;7.668;2023-03-24T17:04:07;14.00;99.90
2389;DHT22;1205;47.984;7.668;2023-03-24T17:06:37;14.00;99.90
2389;DHT22;1205;47.984;7.668;2023-03-24T17:09:04;13.90;99.90
2389;DHT22;1205;47.984;7.668;2023-03-24T17:11:34;13.90;99.90
2389;DHT22;1205;47.984;7.668;2023-03-24T17:14:01;13.80;99.90
2389;DHT22;1205;47.984;7.668;2023-03-24T17:16:32;13.70;99.90
2389;DHT22;1205;47.984;7.668;2023-03-24T17:19:01;13.70;99.90
2389;DHT22;1205;47.984;7.668;2023-03-24T17:21:27;13.50;99.90
2389;DHT22;1205;47.984;7.668;2023-03-24T17:23:52;13.60;99.90
2389;DHT22;1205;47.984;7.668;2023-03-24T17:26:20;13.50;99.90
2389;DHT22;1205;47.984;7.668;2023-03-24T17:28:46;13.60;99.90
2389;DHT22;1205;47.984;7.668;2023-03-24T17:31:12;13.50;99.90
2389;DHT22;1205;47.984;7.668;2023-03-24T17:33:37;13.40;99.90
2389;DHT22;1205;47.984;7.668;2023-03-24T17:36:03;13.30;99.90
2389;DHT22;1205;47.984;7.668;2023-03-24T17:38:29;13.20;99.90
2389;DHT22;1205;47.984;7.668;2023-03-24T17:41:02;13.30;99.90
2389;DHT22;1205;47.984;7.668;2023-03-24T17:43:28;13.30;99.90
2389;DHT22;1205;47.984;7.668;2023-03-24T17:45:58;13.30;99.90
2389;DHT22;1205;47.984;7.668;2023-03-24T17:48:24;13.20;99.90
2389;DHT22;1205;47.984;7.668;2023-03-24T17:50:50;13.20;99.90
2389;DHT22;1205;47.984;7.668;2023-03-24T17:53:16;13.10;99.90
2389;DHT22;1205;47.984;7.668;2023-03-24T17:55:42;13.10;99.90
2389;DHT22;1205;47.984;7.668;2023-03-24T17:58:07;13.00;99.90
2389;DHT22;1205;47.984;7.668;2023-03-24T18:00:33;13.00;99.90
2389;DHT22;1205;47.984;7.668;2023-03-24T18:02:59;12.80;99.90
2389;DHT22;1205;47.984;7.668;2023-03-24T18:05:25;12.80;99.90
2389;DHT22;1205;47.984;7.668;2023-03-24T18:07:50;12.70;99.90
2389;DHT22;1205;47.984;7.668;2023-03-24T18:10:16;12.60;99.90
2389;DHT22;1205;47.984;7.668;2023-03-24T18:12:41;12.50;99.90
2389;DHT22;1205;47.984;7.668;2023-03-24T18:15:07;12.50;99.90
2389;DHT22;1205;47.984;7.668;2023-03-24T18:17:33;12.50;99.90
2389;DHT22;1205;47.984;7.668;2023-03-24T18:19:59;12.60;99.90
2389;DHT22;1205;47.984;7.668;2023-03-24T18:22:34;12.50;99.90
2389;DHT22;1205;47.984;7.668;2023-03-24T18:25:00;12.60;99.90
2389;DHT22;1205;47.984;7.668;2023-03-24T18:27:28;12.50;99.90
2389;DHT22;1205;47.984;7.668;2023-03-24T18:29:54;12.40;99.90
2389;DHT22;1205;47.984;7.668;2023-03-24T18:32:20;12.40;99.90
2389;DHT22;1205;47.984;7.668;2023-03-24T18:34:46;12.40;99.90
2389;DHT22;1205;47.984;7.668;2023-03-24T18:37:11;12.40;99.90
2389;DHT22;1205;47.984;7.668;2023-03-24T18:39:38;12.30;99.90
2389;DHT22;1205;47.984;7.668;2023-03-24T18:42:04;12.30;99.90
2389;DHT22;1205;47.984;7.668;2023-03-24T18:44:30;12.20;99.90
2389;DHT22;1205;47.984;7.668;2023-03-24T18:46:56;12.20;99.90
2389;DHT22;1205;47.984;7.668;2023-03-24T18:49:21;12.10;99.90
2389;DHT22;1205;47.984;7.668;2023-03-24T18:51:47;12.10;99.90
2389;DHT22;1205;47.984;7.668;2023-03-24T18:54:12;12.00;99.90
2389;DHT22;1205;47.984;7.668;2023-03-24T18:56:38;12.00;99.90
2389;DHT22;1205;47.984;7.668;2023-03-24T18:59:03;11.90;99.90
2389;DHT22;1205;47.984;7.668;2023-03-24T19:01:29;11.90;99.90